Friday, February 23, 2018, 1:30 PM EST
Back to Local

KNHK, Nas Patuxent River Md

Location: Patuxent River, MD, United States Lat: 38.3
Local Time: 1:30 PM EST (18:30 GMT) Lon: -76.4
Time Zone: US/Eastern Elev: 39 ft

Show me the last for .
Show Decoded

2018-02-23 13:13 METAR KNHK 231813Z 32007KT 2SM -DZ BR OVC006 07/07 A3047 RMK AO2 P0000 T00670067
                 =
2018-02-23 11:52 METAR KNHK 231652Z 36005KT 3SM -DZ BR OVC005 06/06 A3051 RMK AO2 DZB43 SLP331
                 P0000 T00610061 =
2018-02-23 10:52 METAR KNHK 231552Z 01004KT 2 1/2SM BR OVC004 06/06 A3053 RMK AO2 SLP339
                 T00610061 =
2018-02-23 09:52 METAR KNHK 231452Z 05005KT 2SM BR OVC004 06/06 A3056 RMK AO2 SLP348 T00560056
                 58004 =
2018-02-23 08:52 METAR KNHK 231352Z 04006KT 2SM BR OVC005 06/06 A3057 RMK AO2 SLP352 T00560056 =
2018-02-23 07:52 METAR KNHK 231252Z 03008KT 1 1/4SM BR OVC003 05/05 A3058 RMK AO2 SLP354
                 T00500050 =
2018-02-23 06:52 METAR KNHK 231152Z 03006KT 2 1/2SM BR OVC004 05/05 A3057 RMK AO2 SLP351 60000
                 70007 T00500050 10050 20044 55001 =
2018-02-23 05:52 METAR KNHK 231052Z 07007KT 2SM BR OVC003 05/05 A3055 RMK AO2 SLP345 T00500050 =
2018-02-23 04:52 METAR KNHK 230952Z AUTO 01006KT 2 1/2SM BR OVC003 05/05 A3057 RMK AO2 SLP351
                 T00500050 =
2018-02-23 04:37 METAR KNHK 230937Z AUTO 05008KT 2 1/2SM BR OVC003 05/05 A3056 RMK AO2 T00500050
                 =
2018-02-23 04:18 METAR KNHK 230918Z AUTO 04007KT 2 1/2SM BR OVC004 05/05 A3056 RMK AO2 T00500050
                 =
2018-02-23 04:08 METAR KNHK 230908Z AUTO 04007KT 2 1/2SM BR OVC005 05/05 A3056 RMK AO2 T00500050
                 =
2018-02-23 03:59 METAR KNHK 230859Z AUTO 03006KT 3SM BR OVC005 05/05 A3057 RMK AO2 T00500050 =
2018-02-23 03:52 METAR KNHK 230852Z AUTO 03006KT 4SM BR OVC007 05/05 A3057 RMK AO2 SLP352 60000
                 T00500050 55002 =
2018-02-23 02:52 METAR KNHK 230752Z AUTO 05009KT 7SM OVC008 05/04 A3056 RMK AO2 RAB11E17 SLP350
                 P0000 T00500044 =
2018-02-23 02:38 METAR KNHK 230738Z AUTO 04008KT 4SM BR OVC009 05/04 A3057 RMK AO2 RAB11E17 P0000
                 T00500044 =
2018-02-23 02:26 METAR KNHK 230726Z AUTO 05007KT 3SM BR OVC010 04/04 A3056 RMK AO2 RAB11E17 P0000
                 T00440044 =
2018-02-23 02:19 METAR KNHK 230719Z AUTO 06009KT 3SM BR OVC009 04/04 A3056 RMK AO2 RAB11E17 P0000
                 T00440044 =
2018-02-23 02:07 METAR KNHK 230707Z AUTO 04008KT 2 1/2SM BR OVC009 05/04 A3058 RMK AO2 T00500044
                 =
2018-02-23 01:52 METAR KNHK 230652Z AUTO 04008KT 4SM BR OVC008 05/04 A3058 RMK AO2 SLP355
                 T00500044 =
2018-02-23 00:52 METAR KNHK 230552Z AUTO 05009KT 10SM OVC008 05/04 A3058 RMK AO2 SLP354 60007
                 T00500044 10072 20050 51005 =
2018-02-22 23:52 METAR KNHK 230452Z AUTO 05009KT 10SM OVC009 05/04 A3058 RMK AO2 DZE03 SLP354
                 P0000 T00500044 402000050 =
2018-02-22 23:09 METAR KNHK 230409Z AUTO 04009KT 10SM BKN009 OVC018 06/05 A3059 RMK AO2 DZE03
                 P0000 T00560050 =
2018-02-22 22:52 METAR KNHK 230352Z 08011KT 6SM -DZ BR BKN006 OVC012 06/05 A3057 RMK AO2
                 DZE38B49RAB38E41 SLP353 P0002 T00560050 =
2018-02-22 22:39 METAR KNHK 230339Z 07010KT 6SM -RA BR BKN006 OVC011 06/05 A3058 RMK AO2
                 DZE38RAB38 P0002 T00560050 =
2018-02-22 21:52 METAR KNHK 230252Z 05007KT 6SM -DZ BR SCT005 OVC010 06/06 A3057 RMK AO2
                 RAE36DZB50 SLP350 P0001 60005 T00610061 53009 =
2018-02-22 20:52 METAR KNHK 230152Z 07009KT 5SM -RA BR SCT007 OVC011 07/06 A3055 RMK AO2
                 DZE25RAB25 SLP346 P0004 T00670061 =
2018-02-22 19:52 METAR KNHK 230052Z 06011KT 5SM -DZ BR SCT004 OVC008 07/07 A3054 RMK SLP342 P0000
                 T00720072 =
2018-02-22 19:42 METAR KNHK 230042Z 06011KT 2 1/2SM -DZ BR BKN005 OVC011 07/07 A3053 RMK AO2
                 P0000 T00720072 =
2018-02-22 18:52 METAR KNHK 222352Z 05012KT 4SM -DZ BR SCT004 OVC008 07/07 A3054 RMK AO2 SLP340
                 P0000 60000 T00720072 10111 20072 51038 =
2018-02-22 18:29 METAR KNHK 222329Z 03014KT 3SM -DZ BR SCT004 OVC008 08/07 A3053 RMK AO2 P0000
                 T00780072 =
2018-02-22 17:52 METAR KNHK 222252Z 02015KT 4SM -DZ BR SCT005 OVC010 08/08 A3050 RMK AO2 DZB52
                 SLP328 P0000 T00830078 =
2018-02-22 16:52 METAR KNHK 222152Z 01013KT 6SM BR SCT005 OVC010 09/08 A3047 RMK AO2 DZE51 SLP318
                 P0000 T00890083 =
2018-02-22 16:17 METAR KNHK 222117Z 02011KT 3SM -DZ BR BKN005 OVC011 09/09 A3045 RMK AO2 P0000
                 T00940094 =
2018-02-22 15:52 METAR KNHK 222052Z 03009KT 1 1/2SM -DZ BR BKN004 OVC010 09/09 A3042 RMK AO2
                 SLP302 P0000 60000 T00940094 55007 =
2018-02-22 14:52 METAR KNHK 221952Z 06007KT 1 1/4SM -DZ BR BKN004 OVC009 10/10 A3042 RMK AO2
                 DZB1854 SLP300 P0000 T01000100 =
2018-02-22 14:22 METAR KNHK 221922Z 07007KT 1 1/2SM -DZ BR SCT004 OVC008 10/10 A3042 RMK AO2
                 DZB1854 P0000 T01000100 =
2018-02-22 14:11 METAR KNHK 221911Z 07006KT 2 1/2SM -DZ BR FEW005 OVC010 11/10 A3042 RMK AO2
                 DZB1854 P0000 T01060100 =
2018-02-22 13:52 METAR KNHK 221852Z 08007KT 4SM BR FEW005 OVC010 11/09 A3042 RMK AO2 SLP301
                 T01060094 =

Support USWX by starting your Amazon purchase here.